sensor_id;sensor_type;location;lat;lon;timestamp;pressure;altitude;pressure_sealevel;temperature;humidity
10460;BME280;54412;51.206;6.888;2023-04-07T00:00:54;100670.13;;;9.62;89.74
10460;BME280;54412;51.206;6.888;2023-04-07T00:03:20;100670.03;;;9.44;90.44
10460;BME280;54412;51.206;6.888;2023-04-07T00:05:46;100670.69;;;9.49;91.05
10460;BME280;54412;51.206;6.888;2023-04-07T00:08:12;100668.72;;;9.55;90.90
10460;BME280;54412;51.206;6.888;2023-04-07T00:10:38;100666.50;;;9.83;88.26
10460;BME280;54412;51.206;6.888;2023-04-07T00:13:04;100669.31;;;9.98;87.17
10460;BME280;54412;51.206;6.888;2023-04-07T00:15:29;100670.00;;;9.83;87.15
10460;BME280;54412;51.206;6.888;2023-04-07T00:17:55;100666.50;;;9.83;87.62
10460;BME280;54412;51.206;6.888;2023-04-07T00:20:21;100670.03;;;10.02;86.18
10460;BME280;54412;51.206;6.888;2023-04-07T00:22:48;100666.19;;;10.09;85.82
10460;BME280;54412;51.206;6.888;2023-04-07T00:25:14;100653.84;;;10.09;86.08
10460;BME280;54412;51.206;6.888;2023-04-07T00:27:40;100663.28;;;9.95;87.27
10460;BME280;54412;51.206;6.888;2023-04-07T00:30:06;100668.44;;;9.79;88.27
10460;BME280;54412;51.206;6.888;2023-04-07T00:32:32;100666.50;;;9.83;88.57
10460;BME280;54412;51.206;6.888;2023-04-07T00:34:58;100661.75;;;9.91;87.38
10460;BME280;54412;51.206;6.888;2023-04-07T00:37:23;100663.09;;;9.81;88.19
10460;BME280;54412;51.206;6.888;2023-04-07T00:39:50;100667.09;;;9.89;87.77
10460;BME280;54412;51.206;6.888;2023-04-07T00:42:17;100668.94;;;9.87;87.69
10460;BME280;54412;51.206;6.888;2023-04-07T00:44:43;100655.41;;;9.76;88.14
10460;BME280;54412;51.206;6.888;2023-04-07T00:47:09;100659.03;;;9.92;87.30
10460;BME280;54412;51.206;6.888;2023-04-07T00:49:36;100658.13;;;9.75;88.27
10460;BME280;54412;51.206;6.888;2023-04-07T00:52:04;100656.56;;;9.89;87.92
10460;BME280;54412;51.206;6.888;2023-04-07T00:54:31;100658.19;;;9.73;88.70
10460;BME280;54412;51.206;6.888;2023-04-07T00:56:57;100657.97;;;9.78;88.35
10460;BME280;54412;51.206;6.888;2023-04-07T00:59:24;100652.00;;;9.74;89.35
10460;BME280;54412;51.206;6.888;2023-04-07T01:02:01;100652.94;;;9.73;88.93
10460;BME280;54412;51.206;6.888;2023-04-07T01:04:38;100643.88;;;9.79;88.87
10460;BME280;54412;51.206;6.888;2023-04-07T01:07:33;100648.16;;;10.00;88.39
10460;BME280;54412;51.206;6.888;2023-04-07T01:10:04;100648.78;;;9.86;88.45
10460;BME280;54412;51.206;6.888;2023-04-07T01:13:08;100638.63;;;9.60;89.51
10460;BME280;54412;51.206;6.888;2023-04-07T01:15:39;100646.81;;;9.73;89.37
10460;BME280;54412;51.206;6.888;2023-04-07T01:18:12;100642.53;;;9.89;88.40
10460;BME280;54412;51.206;6.888;2023-04-07T01:20:42;100643.59;;;9.85;88.86
10460;BME280;54412;51.206;6.888;2023-04-07T01:23:24;100644.81;;;9.78;89.45
10460;BME280;54412;51.206;6.888;2023-04-07T01:31:49;100637.19;;;9.90;88.85
10460;BME280;54412;51.206;6.888;2023-04-07T01:34:17;100637.81;;;9.95;88.73
10460;BME280;54412;51.206;6.888;2023-04-07T01:36:45;100634.19;;;9.98;88.91
10460;BME280;54412;51.206;6.888;2023-04-07T01:39:12;100637.25;;;10.07;87.78
10460;BME280;54412;51.206;6.888;2023-04-07T01:41:39;100635.75;;;10.02;88.84
10460;BME280;54412;51.206;6.888;2023-04-07T01:44:06;100639.16;;;10.04;88.07
10460;BME280;54412;51.206;6.888;2023-04-07T01:46:33;100631.75;;;9.93;88.61
10460;BME280;54412;51.206;6.888;2023-04-07T01:49:00;100633.59;;;9.91;89.07
10460;BME280;54412;51.206;6.888;2023-04-07T01:51:29;100636.25;;;9.91;89.52
10460;BME280;54412;51.206;6.888;2023-04-07T01:53:55;100630.06;;;9.92;88.92
10460;BME280;54412;51.206;6.888;2023-04-07T01:56:22;100633.84;;;9.87;89.53
10460;BME280;54412;51.206;6.888;2023-04-07T01:58:47;100629.03;;;9.95;88.60
10460;BME280;54412;51.206;6.888;2023-04-07T02:01:13;100633.69;;;9.90;89.16
10460;BME280;54412;51.206;6.888;2023-04-07T02:03:48;100635.97;;;9.97;88.54
10460;BME280;54412;51.206;6.888;2023-04-07T02:06:22;100636.31;;;9.90;89.15
10460;BME280;54412;51.206;6.888;2023-04-07T02:09:06;100633.31;;;9.79;89.65
10460;BME280;54412;51.206;6.888;2023-04-07T02:11:34;100625.34;;;9.99;89.53
10460;BME280;54412;51.206;6.888;2023-04-07T02:14:04;100628.34;;;9.91;90.15
10460;BME280;54412;51.206;6.888;2023-04-07T02:16:32;100630.06;;;9.92;90.16
10460;BME280;54412;51.206;6.888;2023-04-07T02:19:00;100633.56;;;9.93;90.50
10460;BME280;54412;51.206;6.888;2023-04-07T02:21:27;100636.69;;;10.19;88.45
10460;BME280;54412;51.206;6.888;2023-04-07T02:23:55;100631.94;;;10.09;89.33
10460;BME280;54412;51.206;6.888;2023-04-07T02:26:21;100635.53;;;10.06;89.21
10460;BME280;54412;51.206;6.888;2023-04-07T02:28:46;100631.94;;;10.09;89.52
10460;BME280;54412;51.206;6.888;2023-04-07T02:31:12;100624.88;;;10.09;90.32
10460;BME280;54412;51.206;6.888;2023-04-07T02:33:38;100635.06;;;9.98;90.18
10460;BME280;54412;51.206;6.888;2023-04-07T02:36:04;100627.63;;;10.06;90.00
10460;BME280;54412;51.206;6.888;2023-04-07T02:38:31;100629.66;;;10.20;89.74
10460;BME280;54412;51.206;6.888;2023-04-07T02:40:57;100624.09;;;10.07;90.03
10460;BME280;54412;51.206;6.888;2023-04-07T02:43:23;100625.06;;;10.05;90.61
10460;BME280;54412;51.206;6.888;2023-04-07T02:45:50;100622.44;;;10.05;90.53
10460;BME280;54412;51.206;6.888;2023-04-07T02:48:15;100639.03;;;10.07;90.75
10460;BME280;54412;51.206;6.888;2023-04-07T02:50:41;100636.09;;;10.13;90.80
10460;BME280;54412;51.206;6.888;2023-04-07T02:53:07;100636.19;;;10.11;90.48
10460;BME280;54412;51.206;6.888;2023-04-07T02:55:32;100632.81;;;10.26;90.20
10460;BME280;54412;51.206;6.888;2023-04-07T02:57:58;100638.09;;;10.08;91.04
10460;BME280;54412;51.206;6.888;2023-04-07T03:00:24;100637.75;;;10.15;91.93
10460;BME280;54412;51.206;6.888;2023-04-07T03:02:50;100642.94;;;10.17;91.31
10460;BME280;54412;51.206;6.888;2023-04-07T03:05:16;100641.28;;;10.33;91.06
10460;BME280;54412;51.206;6.888;2023-04-07T03:07:41;100643.34;;;10.45;90.54
10460;BME280;54412;51.206;6.888;2023-04-07T03:10:08;100637.66;;;10.35;90.87
10460;BME280;54412;51.206;6.888;2023-04-07T03:12:33;100637.66;;;10.35;91.07
10460;BME280;54412;51.206;6.888;2023-04-07T03:14:59;100636.59;;;10.57;89.80
10460;BME280;54412;51.206;6.888;2023-04-07T03:17:25;100636.44;;;10.77;89.08
10460;BME280;54412;51.206;6.888;2023-04-07T03:19:51;100638.59;;;10.51;89.70
10460;BME280;54412;51.206;6.888;2023-04-07T03:22:16;100639.06;;;10.42;90.35
10460;BME280;54412;51.206;6.888;2023-04-07T03:24:42;100643.47;;;10.42;90.72
10460;BME280;54412;51.206;6.888;2023-04-07T03:27:08;100639.59;;;10.49;90.68
10460;BME280;54412;51.206;6.888;2023-04-07T03:29:33;100642.03;;;10.53;90.78
10460;BME280;54412;51.206;6.888;2023-04-07T03:31:59;100640.91;;;10.40;90.43
10460;BME280;54412;51.206;6.888;2023-04-07T03:34:25;100638.34;;;10.39;91.58
10460;BME280;54412;51.206;6.888;2023-04-07T03:36:51;100647.06;;;10.58;90.04
10460;BME280;54412;51.206;6.888;2023-04-07T03:39:16;100646.59;;;10.50;90.55
10460;BME280;54412;51.206;6.888;2023-04-07T03:41:42;100640.88;;;10.59;89.59
10460;BME280;54412;51.206;6.888;2023-04-07T03:44:08;100641.19;;;10.70;88.80
10460;BME280;54412;51.206;6.888;2023-04-07T03:46:33;100649.22;;;10.50;88.95
10460;BME280;54412;51.206;6.888;2023-04-07T03:48:59;100649.44;;;10.45;89.91
10460;BME280;54412;51.206;6.888;2023-04-07T03:51:25;100646.22;;;10.58;89.25
10460;BME280;54412;51.206;6.888;2023-04-07T03:53:52;100656.19;;;10.51;89.54
10460;BME280;54412;51.206;6.888;2023-04-07T03:56:18;100653.03;;;10.44;89.40
10460;BME280;54412;51.206;6.888;2023-04-07T03:58:44;100648.81;;;10.40;90.37
10460;BME280;54412;51.206;6.888;2023-04-07T04:01:11;100651.41;;;10.59;89.43
10460;BME280;54412;51.206;6.888;2023-04-07T04:03:36;100658.47;;;10.41;89.86
10460;BME280;54412;51.206;6.888;2023-04-07T04:06:02;100654.38;;;10.34;90.18
10460;BME280;54412;51.206;6.888;2023-04-07T04:08:28;100659.88;;;10.30;90.27
10460;BME280;54412;51.206;6.888;2023-04-07T04:10:54;100664.19;;;10.49;89.88
10460;BME280;54412;51.206;6.888;2023-04-07T04:13:20;100667.81;;;10.47;90.22
10460;BME280;54412;51.206;6.888;2023-04-07T04:15:45;100661.31;;;10.37;89.90
10460;BME280;54412;51.206;6.888;2023-04-07T04:18:11;100667.00;;;10.28;90.25
10460;BME280;54412;51.206;6.888;2023-04-07T04:20:37;100670.16;;;10.36;90.35
10460;BME280;54412;51.206;6.888;2023-04-07T04:23:03;100678.38;;;10.47;89.41
10460;BME280;54412;51.206;6.888;2023-04-07T04:25:28;100671.66;;;10.59;88.76
10460;BME280;54412;51.206;6.888;2023-04-07T04:27:54;100678.78;;;10.57;88.63
10460;BME280;54412;51.206;6.888;2023-04-07T04:30:20;100673.84;;;10.32;89.44
10460;BME280;54412;51.206;6.888;2023-04-07T04:32:46;100670.63;;;10.44;89.45
10460;BME280;54412;51.206;6.888;2023-04-07T04:35:12;100678.06;;;10.36;89.83
10460;BME280;54412;51.206;6.888;2023-04-07T04:37:38;100672.53;;;10.23;90.43
10460;BME280;54412;51.206;6.888;2023-04-07T04:40:04;100686.88;;;10.16;90.52
10460;BME280;54412;51.206;6.888;2023-04-07T04:42:33;100696.72;;;10.31;90.39
10460;BME280;54412;51.206;6.888;2023-04-07T04:44:59;100687.47;;;10.41;89.95
10460;BME280;54412;51.206;6.888;2023-04-07T04:47:25;100684.56;;;10.65;88.26
10460;BME280;54412;51.206;6.888;2023-04-07T04:49:50;100687.66;;;10.37;89.45
10460;BME280;54412;51.206;6.888;2023-04-07T04:52:16;100684.56;;;10.29;90.65
10460;BME280;54412;51.206;6.888;2023-04-07T04:54:42;100696.16;;;10.25;90.37
10460;BME280;54412;51.206;6.888;2023-04-07T04:57:07;100692.75;;;10.23;90.62
10460;BME280;54412;51.206;6.888;2023-04-07T04:59:33;100691.16;;;10.37;89.92
10460;BME280;54412;51.206;6.888;2023-04-07T05:01:59;100694.91;;;10.50;88.65
10460;BME280;54412;51.206;6.888;2023-04-07T05:04:24;100694.44;;;10.42;88.68
10460;BME280;54412;51.206;6.888;2023-04-07T05:06:50;100695.06;;;10.47;88.41
10460;BME280;54412;51.206;6.888;2023-04-07T05:09:16;100699.91;;;10.38;89.02
10460;BME280;54412;51.206;6.888;2023-04-07T05:11:42;100696.00;;;10.28;89.00
10460;BME280;54412;51.206;6.888;2023-04-07T05:14:08;100698.38;;;10.15;89.96
10460;BME280;54412;51.206;6.888;2023-04-07T05:16:34;100706.00;;;10.21;89.54
10460;BME280;54412;51.206;6.888;2023-04-07T05:19:01;100704.56;;;10.33;88.96
10460;BME280;54412;51.206;6.888;2023-04-07T05:21:27;100706.00;;;10.21;89.03
10460;BME280;54412;51.206;6.888;2023-04-07T05:23:53;100709.69;;;10.17;89.50
10460;BME280;54412;51.206;6.888;2023-04-07T05:26:18;100716.13;;;10.30;89.20
10460;BME280;54412;51.206;6.888;2023-04-07T05:28:45;100710.56;;;10.18;89.27
10460;BME280;54412;51.206;6.888;2023-04-07T05:31:11;100719.47;;;10.15;89.54
10460;BME280;54412;51.206;6.888;2023-04-07T05:33:37;100709.16;;;10.11;90.17
10460;BME280;54412;51.206;6.888;2023-04-07T05:36:03;100714.19;;;10.15;90.18
10460;BME280;54412;51.206;6.888;2023-04-07T05:38:29;100718.03;;;10.27;89.27
10460;BME280;54412;51.206;6.888;2023-04-07T05:40:54;100724.66;;;10.17;89.90
10460;BME280;54412;51.206;6.888;2023-04-07T05:43:20;100728.47;;;10.47;88.57
10460;BME280;54412;51.206;6.888;2023-04-07T05:45:46;100722.94;;;10.34;88.73
10460;BME280;54412;51.206;6.888;2023-04-07T05:48:12;100724.50;;;10.01;89.48
10460;BME280;54412;51.206;6.888;2023-04-07T05:50:37;100733.16;;;10.23;89.45
10460;BME280;54412;51.206;6.888;2023-04-07T05:53:03;100727.91;;;10.22;88.88
10460;BME280;54412;51.206;6.888;2023-04-07T05:55:29;100732.22;;;10.24;89.10
10460;BME280;54412;51.206;6.888;2023-04-07T05:57:55;100738.78;;;10.16;89.60
10460;BME280;54412;51.206;6.888;2023-04-07T06:00:21;100739.34;;;10.41;87.90
10460;BME280;54412;51.206;6.888;2023-04-07T06:02:47;100745.47;;;10.23;88.51
10460;BME280;54412;51.206;6.888;2023-04-07T06:05:13;100742.41;;;10.13;89.51
10460;BME280;54412;51.206;6.888;2023-04-07T06:07:38;100744.97;;;10.33;87.73
10460;BME280;54412;51.206;6.888;2023-04-07T06:10:04;100748.75;;;10.28;88.29
10460;BME280;54412;51.206;6.888;2023-04-07T06:12:30;100744.25;;;10.11;89.17
10460;BME280;54412;51.206;6.888;2023-04-07T06:14:56;100754.94;;;10.27;88.75
10460;BME280;54412;51.206;6.888;2023-04-07T06:17:22;100754.34;;;10.20;88.69
10460;BME280;54412;51.206;6.888;2023-04-07T06:19:48;100756.03;;;10.03;89.25
10460;BME280;54412;51.206;6.888;2023-04-07T06:22:14;100760.06;;;10.11;89.83
10460;BME280;54412;51.206;6.888;2023-04-07T06:24:40;100767.06;;;10.12;89.28
10460;BME280;54412;51.206;6.888;2023-04-07T06:27:06;100756.81;;;10.05;89.72
10460;BME280;54412;51.206;6.888;2023-04-07T06:29:32;100760.44;;;10.02;90.06
10460;BME280;54412;51.206;6.888;2023-04-07T06:31:58;100765.69;;;10.22;89.41
10460;BME280;54412;51.206;6.888;2023-04-07T06:34:25;100760.69;;;10.16;89.80
10460;BME280;54412;51.206;6.888;2023-04-07T06:36:50;100769.63;;;10.32;89.09
10460;BME280;54412;51.206;6.888;2023-04-07T06:39:16;100771.09;;;10.38;88.71
10460;BME280;54412;51.206;6.888;2023-04-07T06:41:42;100771.69;;;10.44;87.64
10460;BME280;54412;51.206;6.888;2023-04-07T06:44:11;100772.97;;;10.17;89.16
10460;BME280;54412;51.206;6.888;2023-04-07T06:46:38;100769.75;;;10.11;89.92
10460;BME280;54412;51.206;6.888;2023-04-07T06:49:04;100775.94;;;10.10;89.64
10460;BME280;54412;51.206;6.888;2023-04-07T06:51:30;100781.59;;;10.21;89.26
10460;BME280;54412;51.206;6.888;2023-04-07T06:53:56;100786.28;;;10.33;88.63
10460;BME280;54412;51.206;6.888;2023-04-07T06:56:22;100776.06;;;10.07;89.81
10460;BME280;54412;51.206;6.888;2023-04-07T06:58:48;100789.22;;;10.27;89.52
10460;BME280;54412;51.206;6.888;2023-04-07T07:01:15;100785.00;;;10.23;88.33
10460;BME280;54412;51.206;6.888;2023-04-07T07:03:41;100788.00;;;10.15;89.92
10460;BME280;54412;51.206;6.888;2023-04-07T07:06:06;100793.91;;;10.39;88.26
10460;BME280;54412;51.206;6.888;2023-04-07T07:08:32;100784.00;;;10.25;88.30
10460;BME280;54412;51.206;6.888;2023-04-07T07:10:58;100795.28;;;10.29;88.55
10460;BME280;54412;51.206;6.888;2023-04-07T07:13:25;100795.19;;;10.12;89.81
10460;BME280;54412;51.206;6.888;2023-04-07T07:15:52;100798.78;;;10.09;90.06
10460;BME280;54412;51.206;6.888;2023-04-07T07:18:18;100804.03;;;10.29;89.55
10460;BME280;54412;51.206;6.888;2023-04-07T07:20:44;100795.84;;;10.35;88.99
10460;BME280;54412;51.206;6.888;2023-04-07T07:23:10;100799.03;;;10.42;88.31
10460;BME280;54412;51.206;6.888;2023-04-07T07:25:36;100800.41;;;10.32;88.40
10460;BME280;54412;51.206;6.888;2023-04-07T07:28:02;100805.16;;;10.24;89.13
10460;BME280;54412;51.206;6.888;2023-04-07T07:30:27;100805.66;;;10.32;88.55
10460;BME280;54412;51.206;6.888;2023-04-07T07:32:53;100811.84;;;10.31;88.98
10460;BME280;54412;51.206;6.888;2023-04-07T07:35:20;100822.06;;;10.38;88.92
10460;BME280;54412;51.206;6.888;2023-04-07T07:37:46;100819.03;;;10.27;87.84
10460;BME280;54412;51.206;6.888;2023-04-07T07:40:12;100817.53;;;10.22;89.05
10460;BME280;54412;51.206;6.888;2023-04-07T07:42:37;100823.59;;;10.24;89.09
10460;BME280;54412;51.206;6.888;2023-04-07T07:45:04;100825.19;;;10.28;89.49
10460;BME280;54412;51.206;6.888;2023-04-07T07:47:31;100826.59;;;10.16;89.75
10460;BME280;54412;51.206;6.888;2023-04-07T07:49:57;100832.69;;;10.37;89.83
10460;BME280;54412;51.206;6.888;2023-04-07T07:52:22;100828.53;;;10.31;89.52
10460;BME280;54412;51.206;6.888;2023-04-07T07:54:50;100825.56;;;10.39;89.89
10460;BME280;54412;51.206;6.888;2023-04-07T07:57:16;100843.22;;;10.37;88.94
10460;BME280;54412;51.206;6.888;2023-04-07T07:59:42;100834.31;;;10.58;88.06
10460;BME280;54412;51.206;6.888;2023-04-07T08:02:08;100841.94;;;10.45;88.42
10460;BME280;54412;51.206;6.888;2023-04-07T08:04:36;100832.31;;;10.26;89.52
10460;BME280;54412;51.206;6.888;2023-04-07T08:07:02;100837.97;;;10.56;89.33
10460;BME280;54412;51.206;6.888;2023-04-07T08:09:28;100835.53;;;10.51;88.45
10460;BME280;54412;51.206;6.888;2023-04-07T08:11:54;100844.91;;;10.38;89.08
10460;BME280;54412;51.206;6.888;2023-04-07T08:14:20;100846.59;;;10.59;88.41
10460;BME280;54412;51.206;6.888;2023-04-07T08:16:46;100846.16;;;10.68;87.44
10460;BME280;54412;51.206;6.888;2023-04-07T08:19:12;100846.78;;;10.73;86.77
10460;BME280;54412;51.206;6.888;2023-04-07T08:21:38;100851.44;;;10.49;88.93
10460;BME280;54412;51.206;6.888;2023-04-07T08:24:05;100854.34;;;10.43;88.84
10460;BME280;54412;51.206;6.888;2023-04-07T08:26:31;100858.75;;;10.62;87.95
10460;BME280;54412;51.206;6.888;2023-04-07T08:28:57;100864.75;;;10.46;88.45
10460;BME280;54412;51.206;6.888;2023-04-07T08:31:23;100860.41;;;10.45;88.55
10460;BME280;54412;51.206;6.888;2023-04-07T08:33:49;100861.13;;;10.68;88.41
10460;BME280;54412;51.206;6.888;2023-04-07T08:36:19;100870.03;;;10.65;88.23
10460;BME280;54412;51.206;6.888;2023-04-07T08:38:45;100866.19;;;10.53;88.57
10460;BME280;54412;51.206;6.888;2023-04-07T08:41:17;100868.47;;;10.80;86.98
10460;BME280;54412;51.206;6.888;2023-04-07T08:43:46;100872.03;;;10.79;87.62
10460;BME280;54412;51.206;6.888;2023-04-07T08:46:14;100884.22;;;10.63;88.21
10460;BME280;54412;51.206;6.888;2023-04-07T08:48:43;100877.50;;;10.74;88.36
10460;BME280;54412;51.206;6.888;2023-04-07T08:51:13;100875.59;;;10.78;88.15
10460;BME280;54412;51.206;6.888;2023-04-07T08:53:50;100876.56;;;10.94;88.02
10460;BME280;54412;51.206;6.888;2023-04-07T08:56:19;100884.66;;;10.91;88.25
10460;BME280;54412;51.206;6.888;2023-04-07T08:58:47;100884.50;;;10.94;87.47
10460;BME280;54412;51.206;6.888;2023-04-07T09:01:13;100883.81;;;10.72;88.85
10460;BME280;54412;51.206;6.888;2023-04-07T09:03:43;100883.22;;;10.65;89.51
10460;BME280;54412;51.206;6.888;2023-04-07T09:06:09;100882.56;;;10.60;89.70
10460;BME280;54412;51.206;6.888;2023-04-07T09:08:38;100886.56;;;10.69;89.50
10460;BME280;54412;51.206;6.888;2023-04-07T09:11:03;100886.94;;;10.61;89.66
10460;BME280;54412;51.206;6.888;2023-04-07T09:13:29;100889.16;;;10.70;89.62
10460;BME280;54412;51.206;6.888;2023-04-07T09:15:57;100896.22;;;10.88;88.85
10460;BME280;54412;51.206;6.888;2023-04-07T09:18:24;100901.25;;;10.93;87.46
10460;BME280;54412;51.206;6.888;2023-04-07T09:21:02;100903.03;;;10.92;87.66
10460;BME280;54412;51.206;6.888;2023-04-07T09:23:37;100897.72;;;10.75;88.98
10460;BME280;54412;51.206;6.888;2023-04-07T09:26:20;100895.66;;;10.63;89.38
10460;BME280;54412;51.206;6.888;2023-04-07T09:29:05;100904.53;;;10.61;90.02
10460;BME280;54412;51.206;6.888;2023-04-07T09:31:48;100895.91;;;10.94;88.39
10460;BME280;54412;51.206;6.888;2023-04-07T09:34:30;100903.19;;;10.71;88.36
10460;BME280;54412;51.206;6.888;2023-04-07T09:36:57;100901.69;;;10.65;89.62
10460;BME280;54412;51.206;6.888;2023-04-07T09:39:24;100908.19;;;10.77;89.43
10460;BME280;54412;51.206;6.888;2023-04-07T09:41:50;100901.13;;;10.77;89.58
10460;BME280;54412;51.206;6.888;2023-04-07T09:44:20;100904.97;;;10.89;89.25
10460;BME280;54412;51.206;6.888;2023-04-07T09:46:54;100906.03;;;10.66;89.23
10460;BME280;54412;51.206;6.888;2023-04-07T09:49:21;100906.66;;;10.52;90.50
10460;BME280;54412;51.206;6.888;2023-04-07T09:51:56;100905.81;;;10.71;90.38
10460;BME280;54412;51.206;6.888;2023-04-07T09:54:35;100916.78;;;10.62;90.38
10460;BME280;54412;51.206;6.888;2023-04-07T09:57:03;100908.75;;;10.65;90.57
10460;BME280;54412;51.206;6.888;2023-04-07T09:59:31;100921.88;;;10.66;90.40
10460;BME280;54412;51.206;6.888;2023-04-07T10:01:58;100912.97;;;10.87;89.13
10460;BME280;54412;51.206;6.888;2023-04-07T10:04:25;100922.44;;;10.73;88.87
10460;BME280;54412;51.206;6.888;2023-04-07T10:06:52;100914.31;;;10.77;88.51
10460;BME280;54412;51.206;6.888;2023-04-07T10:09:28;100914.94;;;10.64;89.96
10460;BME280;54412;51.206;6.888;2023-04-07T10:11:55;100914.16;;;10.62;89.92
10460;BME280;54412;51.206;6.888;2023-04-07T10:14:30;100917.75;;;10.79;88.70
10460;BME280;54412;51.206;6.888;2023-04-07T10:16:58;100924.22;;;10.53;89.14
10460;BME280;54412;51.206;6.888;2023-04-07T10:19:25;100930.78;;;10.64;89.01
10460;BME280;54412;51.206;6.888;2023-04-07T10:21:55;100929.72;;;10.86;87.67
10460;BME280;54412;51.206;6.888;2023-04-07T10:24:52;100932.13;;;10.72;87.33
10460;BME280;54412;51.206;6.888;2023-04-07T10:27:33;100923.66;;;10.66;88.20
10460;BME280;54412;51.206;6.888;2023-04-07T10:30:02;100938.16;;;10.76;88.00
10460;BME280;54412;51.206;6.888;2023-04-07T10:32:29;100935.94;;;10.67;89.57
10460;BME280;54412;51.206;6.888;2023-04-07T10:34:56;100935.50;;;10.76;88.36
10460;BME280;54412;51.206;6.888;2023-04-07T10:37:24;100935.84;;;10.68;89.51
10460;BME280;54412;51.206;6.888;2023-04-07T10:42:44;100936.44;;;10.93;88.96
10460;BME280;54412;51.206;6.888;2023-04-07T10:45:12;100942.97;;;10.85;88.81
10460;BME280;54412;51.206;6.888;2023-04-07T10:50:24;100935.84;;;10.87;88.39
10460;BME280;54412;51.206;6.888;2023-04-07T10:53:07;100939.78;;;10.97;88.46
10460;BME280;54412;51.206;6.888;2023-04-07T10:55:44;100945.19;;;11.12;86.84
10460;BME280;54412;51.206;6.888;2023-04-07T10:58:27;100940.00;;;11.11;87.19
10460;BME280;54412;51.206;6.888;2023-04-07T11:03:26;100951.19;;;11.16;86.14
10460;BME280;54412;51.206;6.888;2023-04-07T11:06:05;100950.41;;;11.14;83.94
10460;BME280;54412;51.206;6.888;2023-04-07T11:08:50;100945.53;;;11.05;84.70
10460;BME280;54412;51.206;6.888;2023-04-07T11:11:35;100950.75;;;11.06;85.11
10460;BME280;54412;51.206;6.888;2023-04-07T11:14:04;100956.41;;;10.99;85.39
10460;BME280;54412;51.206;6.888;2023-04-07T11:16:37;100959.25;;;11.13;83.93
10460;BME280;54412;51.206;6.888;2023-04-07T11:19:02;100959.66;;;10.85;85.07
10460;BME280;54412;51.206;6.888;2023-04-07T11:21:28;100958.47;;;10.74;85.95
10460;BME280;54412;51.206;6.888;2023-04-07T11:23:54;100958.88;;;10.83;86.06
10460;BME280;54412;51.206;6.888;2023-04-07T11:26:20;100964.75;;;10.90;86.03
10460;BME280;54412;51.206;6.888;2023-04-07T11:28:54;100957.25;;;11.18;84.41
10460;BME280;54412;51.206;6.888;2023-04-07T11:31:22;100965.38;;;10.95;85.29
10460;BME280;54412;51.206;6.888;2023-04-07T11:34:01;100961.75;;;11.16;85.23
10460;BME280;54412;51.206;6.888;2023-04-07T11:36:32;100970.53;;;11.35;84.90
10460;BME280;54412;51.206;6.888;2023-04-07T11:39:00;100960.78;;;11.54;83.92
10460;BME280;54412;51.206;6.888;2023-04-07T11:41:29;100967.91;;;11.52;83.68
10460;BME280;54412;51.206;6.888;2023-04-07T11:44:09;100969.69;;;11.51;83.03
10460;BME280;54412;51.206;6.888;2023-04-07T11:46:51;100967.63;;;11.58;83.81
10460;BME280;54412;51.206;6.888;2023-04-07T11:49:18;100972.56;;;11.47;84.71
10460;BME280;54412;51.206;6.888;2023-04-07T11:51:43;100974.34;;;11.65;84.18
10460;BME280;54412;51.206;6.888;2023-04-07T11:54:09;100976.25;;;11.62;83.16
10460;BME280;54412;51.206;6.888;2023-04-07T11:56:46;100973.38;;;11.85;82.21
10460;BME280;54412;51.206;6.888;2023-04-07T11:59:22;100976.09;;;11.83;82.23
10460;BME280;54412;51.206;6.888;2023-04-07T12:01:50;100987.75;;;11.79;81.84
10460;BME280;54412;51.206;6.888;2023-04-07T12:04:17;100983.25;;;11.81;80.83
10460;BME280;54412;51.206;6.888;2023-04-07T12:06:46;100992.25;;;11.77;80.30
10460;BME280;54412;51.206;6.888;2023-04-07T12:09:30;100993.78;;;11.45;82.28
10460;BME280;54412;51.206;6.888;2023-04-07T12:11:57;100991.06;;;11.47;82.98
10460;BME280;54412;51.206;6.888;2023-04-07T12:14:26;100998.38;;;11.59;82.84
10460;BME280;54412;51.206;6.888;2023-04-07T12:16:53;100990.22;;;11.65;82.64
10460;BME280;54412;51.206;6.888;2023-04-07T12:19:22;100995.75;;;11.59;82.91
10460;BME280;54412;51.206;6.888;2023-04-07T12:21:48;101004.47;;;11.97;81.86
10460;BME280;54412;51.206;6.888;2023-04-07T12:24:14;101001.38;;;12.06;80.15
10460;BME280;54412;51.206;6.888;2023-04-07T12:26:40;101005.09;;;12.02;79.75
10460;BME280;54412;51.206;6.888;2023-04-07T12:29:05;101008.34;;;11.73;80.99
10460;BME280;54412;51.206;6.888;2023-04-07T12:31:31;101010.66;;;11.79;81.40
10460;BME280;54412;51.206;6.888;2023-04-07T12:33:58;101008.84;;;11.98;79.78
10460;BME280;54412;51.206;6.888;2023-04-07T12:36:25;101017.31;;;11.87;80.31
10460;BME280;54412;51.206;6.888;2023-04-07T12:38:52;101015.66;;;11.85;80.31
10460;BME280;54412;51.206;6.888;2023-04-07T12:41:19;101009.75;;;11.97;79.67
10460;BME280;54412;51.206;6.888;2023-04-07T12:43:45;101016.53;;;12.02;79.04
10460;BME280;54412;51.206;6.888;2023-04-07T12:46:11;101017.69;;;11.97;79.32
10460;BME280;54412;51.206;6.888;2023-04-07T12:48:36;101014.72;;;11.86;80.31
10460;BME280;54412;51.206;6.888;2023-04-07T12:51:02;101019.00;;;12.05;79.62
10460;BME280;54412;51.206;6.888;2023-04-07T12:53:28;101021.59;;;12.07;78.76
10460;BME280;54412;51.206;6.888;2023-04-07T12:55:54;101025.22;;;11.87;80.80
10460;BME280;54412;51.206;6.888;2023-04-07T12:58:20;101018.56;;;11.97;81.47
10460;BME280;54412;51.206;6.888;2023-04-07T13:00:46;101022.59;;;11.87;82.14
10460;BME280;54412;51.206;6.888;2023-04-07T13:03:12;101023.28;;;11.91;81.77
10460;BME280;54412;51.206;6.888;2023-04-07T13:05:37;101018.19;;;12.05;81.38
10460;BME280;54412;51.206;6.888;2023-04-07T13:08:04;101022.75;;;12.01;81.56
10460;BME280;54412;51.206;6.888;2023-04-07T13:10:29;101021.19;;;11.97;81.01